sensor_id;sensor_type;location;lat;lon;timestamp;pressure;altitude;pressure_sealevel;temperature;humidity
84683;BME280;74905;44.124;18.116;2024-03-08T00:01:12;97284.41;;;5.46;78.79
84683;BME280;74905;44.124;18.116;2024-03-08T00:03:38;97288.31;;;5.52;78.88
84683;BME280;74905;44.124;18.116;2024-03-08T00:06:06;97287.28;;;5.48;78.12
84683;BME280;74905;44.124;18.116;2024-03-08T00:08:31;97289.31;;;5.47;78.32
84683;BME280;74905;44.124;18.116;2024-03-08T00:10:57;97283.09;;;5.47;78.78
84683;BME280;74905;44.124;18.116;2024-03-08T00:13:22;97287.03;;;5.44;79.19
84683;BME280;74905;44.124;18.116;2024-03-08T00:15:50;97293.13;;;5.42;79.05
84683;BME280;74905;44.124;18.116;2024-03-08T00:18:16;97294.72;;;5.45;79.10
84683;BME280;74905;44.124;18.116;2024-03-08T00:20:42;97290.66;;;5.46;79.35
84683;BME280;74905;44.124;18.116;2024-03-08T00:23:09;97293.53;;;5.48;79.20
84683;BME280;74905;44.124;18.116;2024-03-08T00:25:36;97294.16;;;5.47;79.84
84683;BME280;74905;44.124;18.116;2024-03-08T00:28:02;97296.19;;;5.46;79.33
84683;BME280;74905;44.124;18.116;2024-03-08T00:30:27;97290.66;;;5.46;79.13
84683;BME280;74905;44.124;18.116;2024-03-08T00:32:53;97293.13;;;5.42;79.05
84683;BME280;74905;44.124;18.116;2024-03-08T00:35:18;97294.56;;;5.43;78.91
84683;BME280;74905;44.124;18.116;2024-03-08T00:37:44;97301.81;;;5.48;78.43
84683;BME280;74905;44.124;18.116;2024-03-08T00:40:12;97302.88;;;5.34;79.70
84683;BME280;74905;44.124;18.116;2024-03-08T00:42:38;97303.75;;;5.36;79.76
84683;BME280;74905;44.124;18.116;2024-03-08T00:45:05;97300.53;;;5.30;79.94
84683;BME280;74905;44.124;18.116;2024-03-08T00:47:31;97302.72;;;5.32;79.80
84683;BME280;74905;44.124;18.116;2024-03-08T00:49:57;97286.75;;;5.30;79.62
84683;BME280;74905;44.124;18.116;2024-03-08T00:52:23;97288.78;;;5.30;80.53
84683;BME280;74905;44.124;18.116;2024-03-08T00:54:49;97285.28;;;5.29;79.64
84683;BME280;74905;44.124;18.116;2024-03-08T00:57:15;97286.88;;;5.32;79.77
84683;BME280;74905;44.124;18.116;2024-03-08T00:59:41;97285.00;;;5.35;80.07
84683;BME280;74905;44.124;18.116;2024-03-08T01:02:07;97275.69;;;5.30;79.86
84683;BME280;74905;44.124;18.116;2024-03-08T01:04:34;97275.69;;;5.30;80.51
84683;BME280;74905;44.124;18.116;2024-03-08T01:07:00;97283.69;;;5.36;80.11
84683;BME280;74905;44.124;18.116;2024-03-08T01:09:27;97276.16;;;5.36;80.09
84683;BME280;74905;44.124;18.116;2024-03-08T01:11:54;97282.50;;;5.39;79.54
84683;BME280;74905;44.124;18.116;2024-03-08T01:14:21;97278.47;;;5.30;80.09
84683;BME280;74905;44.124;18.116;2024-03-08T01:16:51;97275.13;;;5.32;79.69
84683;BME280;74905;44.124;18.116;2024-03-08T01:19:16;97281.94;;;5.31;80.10
84683;BME280;74905;44.124;18.116;2024-03-08T01:21:43;97275.13;;;5.32;79.67
84683;BME280;74905;44.124;18.116;2024-03-08T01:24:09;97274.53;;;5.33;80.28
84683;BME280;74905;44.124;18.116;2024-03-08T01:26:34;97279.78;;;5.29;79.45
84683;BME280;74905;44.124;18.116;2024-03-08T01:29:01;97279.19;;;5.31;79.89
84683;BME280;74905;44.124;18.116;2024-03-08T01:31:32;97275.59;;;5.28;80.04
84683;BME280;74905;44.124;18.116;2024-03-08T01:33:58;97270.34;;;5.32;79.80
84683;BME280;74905;44.124;18.116;2024-03-08T01:36:24;97265.69;;;5.35;79.93
84683;BME280;74905;44.124;18.116;2024-03-08T01:38:50;97269.31;;;5.37;79.99
84683;BME280;74905;44.124;18.116;2024-03-08T01:41:16;97265.84;;;5.37;79.05
84683;BME280;74905;44.124;18.116;2024-03-08T01:43:43;97264.38;;;5.36;79.14
84683;BME280;74905;44.124;18.116;2024-03-08T01:46:10;97259.44;;;5.34;79.77
84683;BME280;74905;44.124;18.116;2024-03-08T01:48:38;97259.72;;;5.38;79.93
84683;BME280;74905;44.124;18.116;2024-03-08T01:51:06;97264.47;;;5.47;79.08
84683;BME280;74905;44.124;18.116;2024-03-08T01:53:33;97266.66;;;5.49;79.52
84683;BME280;74905;44.124;18.116;2024-03-08T01:56:00;97260.72;;;5.43;78.96
84683;BME280;74905;44.124;18.116;2024-03-08T01:58:29;97258.69;;;5.43;79.37
84683;BME280;74905;44.124;18.116;2024-03-08T02:00:56;97259.44;;;5.44;79.13
84683;BME280;74905;44.124;18.116;2024-03-08T02:03:23;97263.19;;;5.39;78.56
84683;BME280;74905;44.124;18.116;2024-03-08T02:05:49;97255.97;;;5.34;79.17
84683;BME280;74905;44.124;18.116;2024-03-08T02:08:15;97254.34;;;5.40;78.81
84683;BME280;74905;44.124;18.116;2024-03-08T02:10:43;97259.84;;;5.50;79.17
84683;BME280;74905;44.124;18.116;2024-03-08T02:13:09;97252.59;;;5.45;78.80
84683;BME280;74905;44.124;18.116;2024-03-08T02:15:54;97261.59;;;5.45;78.47
84683;BME280;74905;44.124;18.116;2024-03-08T02:18:21;97264.94;;;5.44;78.44
84683;BME280;74905;44.124;18.116;2024-03-08T02:20:49;97256.81;;;5.46;78.98
84683;BME280;74905;44.124;18.116;2024-03-08T02:23:14;97255.66;;;5.39;78.34
84683;BME280;74905;44.124;18.116;2024-03-08T02:25:40;97260.16;;;5.44;78.04
84683;BME280;74905;44.124;18.116;2024-03-08T02:28:10;97265.22;;;5.48;78.24
84683;BME280;74905;44.124;18.116;2024-03-08T02:30:36;97260.16;;;5.44;78.30
84683;BME280;74905;44.124;18.116;2024-03-08T02:33:02;97267.16;;;5.36;78.89
84683;BME280;74905;44.124;18.116;2024-03-08T02:35:27;97270.16;;;5.40;78.86
84683;BME280;74905;44.124;18.116;2024-03-08T02:37:53;97271.22;;;5.35;79.25
84683;BME280;74905;44.124;18.116;2024-03-08T02:40:19;97272.50;;;5.34;79.20
84683;BME280;74905;44.124;18.116;2024-03-08T02:42:44;97270.91;;;5.31;79.74
84683;BME280;74905;44.124;18.116;2024-03-08T02:45:10;97269.78;;;5.24;79.90
84683;BME280;74905;44.124;18.116;2024-03-08T02:47:36;97270.34;;;5.32;80.51
84683;BME280;74905;44.124;18.116;2024-03-08T02:50:01;97261.91;;;5.30;79.54
84683;BME280;74905;44.124;18.116;2024-03-08T02:52:28;97267.72;;;5.34;79.68
84683;BME280;74905;44.124;18.116;2024-03-08T02:54:54;97262.94;;;5.35;79.74
84683;BME280;74905;44.124;18.116;2024-03-08T02:57:20;97272.22;;;5.30;79.14
84683;BME280;74905;44.124;18.116;2024-03-08T02:59:45;97265.41;;;5.31;80.09
84683;BME280;74905;44.124;18.116;2024-03-08T03:02:11;97262.81;;;5.23;79.43
84683;BME280;74905;44.124;18.116;2024-03-08T03:04:40;97268.16;;;5.21;80.26
84683;BME280;74905;44.124;18.116;2024-03-08T03:07:05;97263.09;;;5.17;80.04
84683;BME280;74905;44.124;18.116;2024-03-08T03:09:31;97258.31;;;5.18;80.78
84683;BME280;74905;44.124;18.116;2024-03-08T03:11:58;97259.88;;;5.21;80.95
84683;BME280;74905;44.124;18.116;2024-03-08T03:14:24;97255.25;;;5.23;79.91
84683;BME280;74905;44.124;18.116;2024-03-08T03:16:52;97261.50;;;5.24;80.14
84683;BME280;74905;44.124;18.116;2024-03-08T03:19:18;97257.00;;;5.19;80.31
84683;BME280;74905;44.124;18.116;2024-03-08T03:21:43;97252.19;;;5.19;80.08
84683;BME280;74905;44.124;18.116;2024-03-08T03:24:09;97264.09;;;5.22;80.58
84683;BME280;74905;44.124;18.116;2024-03-08T03:26:38;97265.13;;;5.27;80.18
84683;BME280;74905;44.124;18.116;2024-03-08T03:29:09;97264.56;;;5.28;80.24
84683;BME280;74905;44.124;18.116;2024-03-08T03:31:36;97265.97;;;5.29;79.96
84683;BME280;74905;44.124;18.116;2024-03-08T03:34:02;97266.13;;;5.31;79.71
84683;BME280;74905;44.124;18.116;2024-03-08T03:36:30;97260.16;;;5.35;79.66
84683;BME280;74905;44.124;18.116;2024-03-08T03:38:56;97262.38;;;5.27;79.09
84683;BME280;74905;44.124;18.116;2024-03-08T03:41:44;97268.47;;;5.25;79.78
84683;BME280;74905;44.124;18.116;2024-03-08T03:44:11;97264.25;;;5.24;79.99
84683;BME280;74905;44.124;18.116;2024-03-08T03:46:37;97267.59;;;5.22;80.21
84683;BME280;74905;44.124;18.116;2024-03-08T03:49:02;97262.53;;;5.19;80.27
84683;BME280;74905;44.124;18.116;2024-03-08T03:51:29;97261.34;;;5.22;80.03
84683;BME280;74905;44.124;18.116;2024-03-08T03:53:55;97264.84;;;5.22;80.52
84683;BME280;74905;44.124;18.116;2024-03-08T03:56:26;97258.88;;;5.26;80.14
84683;BME280;74905;44.124;18.116;2024-03-08T03:58:52;97265.84;;;5.27;80.16
84683;BME280;74905;44.124;18.116;2024-03-08T04:01:17;97268.16;;;5.31;79.72
84683;BME280;74905;44.124;18.116;2024-03-08T04:03:44;97268.00;;;5.29;80.24
84683;BME280;74905;44.124;18.116;2024-03-08T04:06:10;97260.59;;;5.31;80.19
84683;BME280;74905;44.124;18.116;2024-03-08T04:08:36;97263.66;;;5.35;80.00
84683;BME280;74905;44.124;18.116;2024-03-08T04:11:01;97264.09;;;5.32;79.68
84683;BME280;74905;44.124;18.116;2024-03-08T04:13:28;97262.19;;;5.34;80.08
84683;BME280;74905;44.124;18.116;2024-03-08T04:15:53;97262.34;;;5.36;79.13
84683;BME280;74905;44.124;18.116;2024-03-08T04:18:19;97267.72;;;5.34;79.91
84683;BME280;74905;44.124;18.116;2024-03-08T04:20:44;97261.91;;;5.30;80.29
84683;BME280;74905;44.124;18.116;2024-03-08T04:23:10;97265.13;;;5.36;80.21
84683;BME280;74905;44.124;18.116;2024-03-08T04:25:36;97260.03;;;5.33;80.36
84683;BME280;74905;44.124;18.116;2024-03-08T04:28:02;97266.28;;;5.33;80.20
84683;BME280;74905;44.124;18.116;2024-03-08T04:30:27;97265.69;;;5.35;80.22
84683;BME280;74905;44.124;18.116;2024-03-08T04:32:54;97263.38;;;5.31;80.19
84683;BME280;74905;44.124;18.116;2024-03-08T04:35:19;97268.00;;;5.29;80.21
84683;BME280;74905;44.124;18.116;2024-03-08T04:37:45;97273.84;;;5.23;80.57
84683;BME280;74905;44.124;18.116;2024-03-08T04:40:11;97282.25;;;5.25;80.48
84683;BME280;74905;44.124;18.116;2024-03-08T04:42:39;97277.75;;;5.30;80.74
84683;BME280;74905;44.124;18.116;2024-03-08T04:45:06;97270.91;;;5.31;80.12
84683;BME280;74905;44.124;18.116;2024-03-08T04:47:33;97272.94;;;5.30;80.64
84683;BME280;74905;44.124;18.116;2024-03-08T04:49:59;97274.41;;;5.31;80.31
84683;BME280;74905;44.124;18.116;2024-03-08T04:52:25;97273.25;;;5.34;80.44
84683;BME280;74905;44.124;18.116;2024-03-08T04:54:51;97271.78;;;5.33;80.15
84683;BME280;74905;44.124;18.116;2024-03-08T04:57:16;97272.81;;;5.38;80.08
84683;BME280;74905;44.124;18.116;2024-03-08T04:59:45;97280.78;;;5.43;79.60
84683;BME280;74905;44.124;18.116;2024-03-08T05:02:10;97282.66;;;5.41;79.56
84683;BME280;74905;44.124;18.116;2024-03-08T05:04:36;97287.03;;;5.34;79.56
84683;BME280;74905;44.124;18.116;2024-03-08T05:07:02;97289.50;;;5.30;79.66
84683;BME280;74905;44.124;18.116;2024-03-08T05:09:28;97281.38;;;5.32;80.02
84683;BME280;74905;44.124;18.116;2024-03-08T05:11:54;97287.44;;;5.40;79.83
84683;BME280;74905;44.124;18.116;2024-03-08T05:14:20;97279.47;;;5.35;79.58
84683;BME280;74905;44.124;18.116;2024-03-08T05:16:46;97282.41;;;5.37;79.57
84683;BME280;74905;44.124;18.116;2024-03-08T05:19:16;97281.66;;;5.36;79.80
84683;BME280;74905;44.124;18.116;2024-03-08T05:21:48;97276.88;;;5.37;80.09
84683;BME280;74905;44.124;18.116;2024-03-08T05:24:14;97285.72;;;5.35;80.34
84683;BME280;74905;44.124;18.116;2024-03-08T05:26:41;97289.63;;;5.42;80.18
84683;BME280;74905;44.124;18.116;2024-03-08T05:29:07;97297.03;;;5.39;79.64
84683;BME280;74905;44.124;18.116;2024-03-08T05:31:52;97304.91;;;5.33;80.20
84683;BME280;74905;44.124;18.116;2024-03-08T05:34:18;97303.44;;;5.32;80.81
84683;BME280;74905;44.124;18.116;2024-03-08T05:36:45;97306.63;;;5.29;80.64
84683;BME280;74905;44.124;18.116;2024-03-08T05:39:20;97304.91;;;5.23;81.24
84683;BME280;74905;44.124;18.116;2024-03-08T05:41:46;97309.38;;;5.29;80.39
84683;BME280;74905;44.124;18.116;2024-03-08T05:44:13;97303.75;;;5.27;79.86
84683;BME280;74905;44.124;18.116;2024-03-08T05:46:39;97313.59;;;5.30;80.52
84683;BME280;74905;44.124;18.116;2024-03-08T05:49:08;97312.75;;;5.27;80.51
84683;BME280;74905;44.124;18.116;2024-03-08T05:51:38;97312.75;;;5.27;80.22
84683;BME280;74905;44.124;18.116;2024-03-08T05:54:10;97324.06;;;5.31;80.63
84683;BME280;74905;44.124;18.116;2024-03-08T05:56:37;97327.41;;;5.30;80.55
84683;BME280;74905;44.124;18.116;2024-03-08T05:59:03;97333.38;;;5.26;80.63
84683;BME280;74905;44.124;18.116;2024-03-08T06:01:29;97331.34;;;5.27;80.46
84683;BME280;74905;44.124;18.116;2024-03-08T06:03:56;97333.38;;;5.26;80.74
84683;BME280;74905;44.124;18.116;2024-03-08T06:06:25;97328.69;;;5.29;79.70
84683;BME280;74905;44.124;18.116;2024-03-08T06:08:52;97336.28;;;5.28;79.05
84683;BME280;74905;44.124;18.116;2024-03-08T06:11:19;97329.88;;;5.35;79.28
84683;BME280;74905;44.124;18.116;2024-03-08T06:13:48;97335.09;;;5.31;79.22
84683;BME280;74905;44.124;18.116;2024-03-08T06:16:15;97335.97;;;5.34;78.66
84683;BME280;74905;44.124;18.116;2024-03-08T06:18:41;97332.19;;;5.39;78.82
84683;BME280;74905;44.124;18.116;2024-03-08T06:21:12;97334.38;;;5.40;79.13
84683;BME280;74905;44.124;18.116;2024-03-08T06:23:38;97333.34;;;5.45;78.89
84683;BME280;74905;44.124;18.116;2024-03-08T06:26:04;97337.69;;;5.48;78.51
84683;BME280;74905;44.124;18.116;2024-03-08T06:28:30;97336.97;;;5.57;78.04
84683;BME280;74905;44.124;18.116;2024-03-08T06:31:00;97338.56;;;5.60;77.53
84683;BME280;74905;44.124;18.116;2024-03-08T06:33:30;97334.31;;;5.69;77.19
84683;BME280;74905;44.124;18.116;2024-03-08T06:35:58;97335.47;;;5.76;76.70
84683;BME280;74905;44.124;18.116;2024-03-08T06:38:26;97324.56;;;5.78;76.14
84683;BME280;74905;44.124;18.116;2024-03-08T06:40:55;97335.63;;;5.78;74.75
84683;BME280;74905;44.124;18.116;2024-03-08T06:43:22;97325.72;;;5.84;74.81
84683;BME280;74905;44.124;18.116;2024-03-08T06:45:47;97343.13;;;6.06;74.82
84683;BME280;74905;44.124;18.116;2024-03-08T06:48:18;97337.56;;;6.16;75.03
84683;BME280;74905;44.124;18.116;2024-03-08T06:50:44;97343.88;;;6.38;74.44
84683;BME280;74905;44.124;18.116;2024-03-08T06:53:11;97340.63;;;6.51;72.06
84683;BME280;74905;44.124;18.116;2024-03-08T06:55:37;97342.81;;;6.43;73.01
84683;BME280;74905;44.124;18.116;2024-03-08T06:58:03;97331.94;;;6.66;72.88
84683;BME280;74905;44.124;18.116;2024-03-08T07:00:29;97332.88;;;6.80;71.26
84683;BME280;74905;44.124;18.116;2024-03-08T07:02:56;97336.31;;;6.90;71.20
84683;BME280;74905;44.124;18.116;2024-03-08T07:05:30;97332.44;;;7.05;70.96
84683;BME280;74905;44.124;18.116;2024-03-08T07:07:56;97329.59;;;7.15;70.94
84683;BME280;74905;44.124;18.116;2024-03-08T07:12:48;97335.00;;;7.13;70.48
84683;BME280;74905;44.124;18.116;2024-03-08T07:15:15;97339.72;;;7.22;70.88
84683;BME280;74905;44.124;18.116;2024-03-08T07:17:42;97343.72;;;7.30;70.83
84683;BME280;74905;44.124;18.116;2024-03-08T07:20:10;97346.94;;;7.48;70.28
84683;BME280;74905;44.124;18.116;2024-03-08T07:22:38;97350.34;;;7.58;70.00
84683;BME280;74905;44.124;18.116;2024-03-08T07:25:07;97346.53;;;7.75;69.05
84683;BME280;74905;44.124;18.116;2024-03-08T07:27:33;97353.69;;;7.90;68.44
84683;BME280;74905;44.124;18.116;2024-03-08T07:30:03;97347.56;;;8.03;67.94
84683;BME280;74905;44.124;18.116;2024-03-08T07:32:29;97350.72;;;8.09;67.95
84683;BME280;74905;44.124;18.116;2024-03-08T07:34:57;97353.13;;;8.26;67.17
84683;BME280;74905;44.124;18.116;2024-03-08T07:37:27;97341.97;;;8.47;67.04
84683;BME280;74905;44.124;18.116;2024-03-08T07:39:53;97346.41;;;8.52;65.65
84683;BME280;74905;44.124;18.116;2024-03-08T07:42:20;97343.00;;;8.31;66.41
84683;BME280;74905;44.124;18.116;2024-03-08T07:44:47;97342.16;;;8.16;66.95
84683;BME280;74905;44.124;18.116;2024-03-08T07:47:15;97343.00;;;8.19;66.83
84683;BME280;74905;44.124;18.116;2024-03-08T07:49:43;97341.78;;;8.22;66.47
84683;BME280;74905;44.124;18.116;2024-03-08T07:52:09;97346.16;;;8.25;66.64
84683;BME280;74905;44.124;18.116;2024-03-08T07:54:41;97355.00;;;8.56;66.81
84683;BME280;74905;44.124;18.116;2024-03-08T07:57:07;97350.13;;;8.69;64.96
84683;BME280;74905;44.124;18.116;2024-03-08T07:59:33;97351.09;;;8.85;64.85
84683;BME280;74905;44.124;18.116;2024-03-08T08:01:59;97350.50;;;8.86;64.30
84683;BME280;74905;44.124;18.116;2024-03-08T08:04:25;97346.41;;;8.76;65.69
84683;BME280;74905;44.124;18.116;2024-03-08T08:06:52;97358.31;;;8.78;64.83
84683;BME280;74905;44.124;18.116;2024-03-08T08:09:18;97350.13;;;8.80;64.81
84683;BME280;74905;44.124;18.116;2024-03-08T08:11:54;97359.56;;;8.87;65.45
84683;BME280;74905;44.124;18.116;2024-03-08T08:14:20;97356.28;;;8.79;64.48
84683;BME280;74905;44.124;18.116;2024-03-08T08:16:47;97353.63;;;8.81;64.10
84683;BME280;74905;44.124;18.116;2024-03-08T08:19:14;97353.38;;;8.88;64.59
84683;BME280;74905;44.124;18.116;2024-03-08T08:21:41;97350.38;;;8.96;63.73
84683;BME280;74905;44.124;18.116;2024-03-08T08:24:07;97345.50;;;9.08;62.85
84683;BME280;74905;44.124;18.116;2024-03-08T08:26:32;97346.66;;;9.28;62.80
84683;BME280;74905;44.124;18.116;2024-03-08T08:28:59;97342.63;;;9.43;61.84
84683;BME280;74905;44.124;18.116;2024-03-08T08:31:25;97344.69;;;9.68;61.29
84683;BME280;74905;44.124;18.116;2024-03-08T08:33:51;97349.47;;;9.79;60.67
84683;BME280;74905;44.124;18.116;2024-03-08T08:36:24;97338.47;;;9.81;61.00
84683;BME280;74905;44.124;18.116;2024-03-08T08:38:49;97342.59;;;9.94;60.88
84683;BME280;74905;44.124;18.116;2024-03-08T08:41:15;97338.47;;;9.95;60.96
84683;BME280;74905;44.124;18.116;2024-03-08T08:43:43;97340.72;;;9.85;60.48
84683;BME280;74905;44.124;18.116;2024-03-08T08:46:11;97337.28;;;9.98;59.53
84683;BME280;74905;44.124;18.116;2024-03-08T08:48:39;97343.88;;;10.04;58.87
84683;BME280;74905;44.124;18.116;2024-03-08T08:51:11;97341.97;;;10.21;58.97
84683;BME280;74905;44.124;18.116;2024-03-08T08:53:43;97337.38;;;10.53;58.05
84683;BME280;74905;44.124;18.116;2024-03-08T08:56:11;97338.00;;;10.51;57.35
84683;BME280;74905;44.124;18.116;2024-03-08T08:58:39;97336.75;;;10.54;58.04
84683;BME280;74905;44.124;18.116;2024-03-08T09:01:06;97333.66;;;10.62;55.53
84683;BME280;74905;44.124;18.116;2024-03-08T09:03:33;97334.28;;;10.60;56.76
84683;BME280;74905;44.124;18.116;2024-03-08T09:06:00;97332.94;;;10.34;56.85
84683;BME280;74905;44.124;18.116;2024-03-08T09:08:28;97336.44;;;10.48;56.71
84683;BME280;74905;44.124;18.116;2024-03-08T09:10:54;97331.09;;;10.79;56.76
84683;BME280;74905;44.124;18.116;2024-03-08T09:13:20;97329.19;;;12.00;52.88
84683;BME280;74905;44.124;18.116;2024-03-08T09:15:46;97317.84;;;12.74;50.04
84683;BME280;74905;44.124;18.116;2024-03-08T09:18:12;97319.84;;;13.74;47.64
84683;BME280;74905;44.124;18.116;2024-03-08T09:20:38;97318.38;;;15.07;44.92
84683;BME280;74905;44.124;18.116;2024-03-08T09:23:06;97320.25;;;15.01;43.25
84683;BME280;74905;44.124;18.116;2024-03-08T09:25:33;97317.22;;;14.35;44.62
84683;BME280;74905;44.124;18.116;2024-03-08T09:27:59;97311.25;;;13.88;45.81
84683;BME280;74905;44.124;18.116;2024-03-08T09:30:25;97317.59;;;13.70;46.69
84683;BME280;74905;44.124;18.116;2024-03-08T09:32:50;97317.88;;;14.14;44.31
84683;BME280;74905;44.124;18.116;2024-03-08T09:35:16;97323.09;;;14.81;43.50
84683;BME280;74905;44.124;18.116;2024-03-08T09:37:42;97313.53;;;16.21;39.94
84683;BME280;74905;44.124;18.116;2024-03-08T09:40:08;97312.97;;;17.02;39.02
84683;BME280;74905;44.124;18.116;2024-03-08T09:42:42;97309.28;;;17.51;37.91
84683;BME280;74905;44.124;18.116;2024-03-08T09:45:11;97310.84;;;16.74;38.85
84683;BME280;74905;44.124;18.116;2024-03-08T09:47:44;97319.31;;;15.36;40.38
84683;BME280;74905;44.124;18.116;2024-03-08T09:50:13;97324.97;;;14.37;43.81
84683;BME280;74905;44.124;18.116;2024-03-08T09:52:39;97326.06;;;13.37;46.65
84683;BME280;74905;44.124;18.116;2024-03-08T09:55:05;97324.66;;;12.87;48.35
84683;BME280;74905;44.124;18.116;2024-03-08T09:57:36;97326.22;;;12.74;47.06
84683;BME280;74905;44.124;18.116;2024-03-08T10:00:05;97324.69;;;12.71;48.57
84683;BME280;74905;44.124;18.116;2024-03-08T10:02:46;97322.19;;;12.95;48.61
84683;BME280;74905;44.124;18.116;2024-03-08T10:05:13;97322.22;;;13.28;46.60
84683;BME280;74905;44.124;18.116;2024-03-08T10:07:39;97311.56;;;14.33;44.60
84683;BME280;74905;44.124;18.116;2024-03-08T10:10:05;97312.91;;;15.11;43.40
84683;BME280;74905;44.124;18.116;2024-03-08T10:12:34;97307.81;;;16.17;41.34
84683;BME280;74905;44.124;18.116;2024-03-08T10:15:00;97310.63;;;15.93;40.21
84683;BME280;74905;44.124;18.116;2024-03-08T10:17:26;97301.63;;;16.46;40.73
84683;BME280;74905;44.124;18.116;2024-03-08T10:20:00;97297.16;;;17.15;39.26
84683;BME280;74905;44.124;18.116;2024-03-08T10:22:26;97296.31;;;18.66;35.80
84683;BME280;74905;44.124;18.116;2024-03-08T10:24:52;97298.94;;;17.60;35.91
84683;BME280;74905;44.124;18.116;2024-03-08T10:27:18;97294.44;;;17.48;36.11
84683;BME280;74905;44.124;18.116;2024-03-08T10:29:48;97286.91;;;16.99;37.04
84683;BME280;74905;44.124;18.116;2024-03-08T10:32:14;97294.72;;;15.78;39.59
84683;BME280;74905;44.124;18.116;2024-03-08T10:34:43;97297.34;;;15.28;39.33
84683;BME280;74905;44.124;18.116;2024-03-08T10:37:15;97298.44;;;14.97;41.28
84683;BME280;74905;44.124;18.116;2024-03-08T10:40:01;97293.13;;;14.66;42.15
84683;BME280;74905;44.124;18.116;2024-03-08T10:42:40;97289.25;;;14.55;41.26
84683;BME280;74905;44.124;18.116;2024-03-08T10:45:15;97290.38;;;14.28;43.67
84683;BME280;74905;44.124;18.116;2024-03-08T10:47:49;97291.56;;;13.66;45.54
84683;BME280;74905;44.124;18.116;2024-03-08T10:50:20;97283.66;;;13.60;43.92
84683;BME280;74905;44.124;18.116;2024-03-08T10:52:51;97286.03;;;13.50;45.23
84683;BME280;74905;44.124;18.116;2024-03-08T10:55:18;97277.44;;;13.44;45.19
84683;BME280;74905;44.124;18.116;2024-03-08T10:57:46;97277.50;;;13.64;44.82
84683;BME280;74905;44.124;18.116;2024-03-08T11:00:16;97269.91;;;13.31;47.37
84683;BME280;74905;44.124;18.116;2024-03-08T11:02:45;97279.09;;;13.33;47.28
84683;BME280;74905;44.124;18.116;2024-03-08T11:05:11;97275.31;;;13.09;47.44
84683;BME280;74905;44.124;18.116;2024-03-08T11:07:42;97275.84;;;13.39;46.21
84683;BME280;74905;44.124;18.116;2024-03-08T11:10:19;97276.78;;;13.28;47.95
84683;BME280;74905;44.124;18.116;2024-03-08T11:12:45;97280.72;;;13.38;46.95
84683;BME280;74905;44.124;18.116;2024-03-08T11:15:13;97276.47;;;13.20;47.32
84683;BME280;74905;44.124;18.116;2024-03-08T11:17:45;97267.03;;;13.11;47.29
84683;BME280;74905;44.124;18.116;2024-03-08T11:22:51;97267.63;;;12.92;47.55
84683;BME280;74905;44.124;18.116;2024-03-08T11:25:36;97263.78;;;13.17;46.84
84683;BME280;74905;44.124;18.116;2024-03-08T11:28:15;97263.22;;;13.38;45.47
84683;BME280;74905;44.124;18.116;2024-03-08T11:31:22;97251.22;;;13.53;45.10
84683;BME280;74905;44.124;18.116;2024-03-08T11:33:35;97257.16;;;13.26;45.61
84683;BME280;74905;44.124;18.116;2024-03-08T11:38:43;97246.19;;;13.14;47.12
84683;BME280;74905;44.124;18.116;2024-03-08T11:41:10;97247.41;;;13.27;47.24
84683;BME280;74905;44.124;18.116;2024-03-08T11:43:40;97242.31;;;13.39;46.99
84683;BME280;74905;44.124;18.116;2024-03-08T11:46:13;97247.94;;;13.41;46.94
84683;BME280;74905;44.124;18.116;2024-03-08T11:48:40;97239.19;;;13.49;46.99
84683;BME280;74905;44.124;18.116;2024-03-08T11:51:13;97229.41;;;13.50;46.58
84683;BME280;74905;44.124;18.116;2024-03-08T11:53:39;97229.31;;;13.65;45.67
84683;BME280;74905;44.124;18.116;2024-03-08T11:56:16;97218.34;;;13.34;47.37
84683;BME280;74905;44.124;18.116;2024-03-08T11:58:53;97222.94;;;14.40;44.50
84683;BME280;74905;44.124;18.116;2024-03-08T12:01:19;97210.03;;;15.83;42.40
84683;BME280;74905;44.124;18.116;2024-03-08T12:03:55;97203.22;;;16.68;39.74
84683;BME280;74905;44.124;18.116;2024-03-08T12:06:24;97200.72;;;17.10;39.12
84683;BME280;74905;44.124;18.116;2024-03-08T12:08:51;97197.50;;;18.19;36.45
84683;BME280;74905;44.124;18.116;2024-03-08T12:11:17;97191.88;;;19.94;33.25
84683;BME280;74905;44.124;18.116;2024-03-08T12:13:49;97186.72;;;21.09;31.00
84683;BME280;74905;44.124;18.116;2024-03-08T12:16:18;97189.44;;;19.70;32.51
84683;BME280;74905;44.124;18.116;2024-03-08T12:18:44;97177.16;;;20.66;31.15
84683;BME280;74905;44.124;18.116;2024-03-08T12:21:11;97178.72;;;20.83;31.21
84683;BME280;74905;44.124;18.116;2024-03-08T12:23:39;97170.63;;;21.34;30.11
84683;BME280;74905;44.124;18.116;2024-03-08T12:26:18;97163.34;;;22.32;28.15
84683;BME280;74905;44.124;18.116;2024-03-08T12:28:48;97157.97;;;21.41;30.31
84683;BME280;74905;44.124;18.116;2024-03-08T12:31:16;97154.22;;;21.16;30.53
84683;BME280;74905;44.124;18.116;2024-03-08T12:33:51;97158.53;;;19.80;31.81
84683;BME280;74905;44.124;18.116;2024-03-08T12:36:18;97155.50;;;18.34;33.85
84683;BME280;74905;44.124;18.116;2024-03-08T12:38:45;97146.28;;;17.27;35.78
84683;BME280;74905;44.124;18.116;2024-03-08T12:41:18;97141.28;;;18.26;34.16
84683;BME280;74905;44.124;18.116;2024-03-08T12:43:48;97134.72;;;19.41;32.37
84683;BME280;74905;44.124;18.116;2024-03-08T12:46:20;97145.88;;;19.33;32.39
84683;BME280;74905;44.124;18.116;2024-03-08T12:48:47;97136.72;;;18.46;33.69
84683;BME280;74905;44.124;18.116;2024-03-08T12:51:17;97124.88;;;19.46;32.79
84683;BME280;74905;44.124;18.116;2024-03-08T12:53:46;97121.97;;;20.61;30.88
84683;BME280;74905;44.124;18.116;2024-03-08T12:56:13;97133.34;;;21.74;28.18
84683;BME280;74905;44.124;18.116;2024-03-08T12:58:40;97124.31;;;22.20;27.05
84683;BME280;74905;44.124;18.116;2024-03-08T13:01:06;97119.91;;;20.69;29.60
84683;BME280;74905;44.124;18.116;2024-03-08T13:03:36;97119.31;;;20.81;29.91
84683;BME280;74905;44.124;18.116;2024-03-08T13:06:05;97134.00;;;19.95;30.73
84683;BME280;74905;44.124;18.116;2024-03-08T13:08:38;97129.72;;;20.60;29.27